sensor_id;sensor_type;location;lat;lon;timestamp;P1;durP1;ratioP1;P2;durP2;ratioP2
45342;SDS011;31077;50.872;4.352;2023-02-12T02:09:55;72.07;;;41.63;;
45342;SDS011;31077;50.872;4.352;2023-02-12T02:12:22;113.05;;;61.33;;
45342;SDS011;31077;50.872;4.352;2023-02-12T02:15:08;582.65;;;373.92;;
45342;SDS011;31077;50.872;4.352;2023-02-12T02:20:48;447.98;;;278.88;;
45342;SDS011;31077;50.872;4.352;2023-02-12T02:28:57;494.35;;;325.73;;
45342;SDS011;31077;50.872;4.352;2023-02-12T02:31:42;478.10;;;318.23;;
45342;SDS011;31077;50.872;4.352;2023-02-12T02:37:31;442.08;;;289.25;;
45342;SDS011;31077;50.872;4.352;2023-02-12T02:40:09;399.55;;;258.92;;
45342;SDS011;31077;50.872;4.352;2023-02-12T02:42:54;431.90;;;278.30;;
45342;SDS011;31077;50.872;4.352;2023-02-12T02:45:30;476.40;;;316.52;;
45342;SDS011;31077;50.872;4.352;2023-02-12T02:48:03;358.27;;;233.25;;
45342;SDS011;31077;50.872;4.352;2023-02-12T02:50:38;427.10;;;284.65;;
45342;SDS011;31077;50.872;4.352;2023-02-12T02:53:09;405.70;;;258.15;;
45342;SDS011;31077;50.872;4.352;2023-02-12T02:55:48;424.50;;;276.13;;
45342;SDS011;31077;50.872;4.352;2023-02-12T02:58:22;428.50;;;287.80;;
45342;SDS011;31077;50.872;4.352;2023-02-12T03:00:54;429.15;;;274.20;;
45342;SDS011;31077;50.872;4.352;2023-02-12T03:03:27;469.45;;;314.13;;
45342;SDS011;31077;50.872;4.352;2023-02-12T03:06:11;457.17;;;293.58;;
45342;SDS011;31077;50.872;4.352;2023-02-12T03:08:46;433.20;;;289.20;;
45342;SDS011;31077;50.872;4.352;2023-02-12T03:11:21;531.58;;;363.33;;
45342;SDS011;31077;50.872;4.352;2023-02-12T03:14:13;486.10;;;323.23;;
45342;SDS011;31077;50.872;4.352;2023-02-12T03:16:46;267.52;;;171.68;;
45342;SDS011;31077;50.872;4.352;2023-02-12T03:19:39;408.15;;;265.35;;
45342;SDS011;31077;50.872;4.352;2023-02-12T03:22:11;367.45;;;227.82;;
45342;SDS011;31077;50.872;4.352;2023-02-12T03:24:55;648.65;;;446.52;;
45342;SDS011;31077;50.872;4.352;2023-02-12T03:27:30;562.63;;;378.63;;
45342;SDS011;31077;50.872;4.352;2023-02-12T03:29:59;427.77;;;292.17;;
45342;SDS011;31077;50.872;4.352;2023-02-12T03:32:36;521.47;;;359.65;;
45342;SDS011;31077;50.872;4.352;2023-02-12T03:35:30;515.50;;;353.08;;
45342;SDS011;31077;50.872;4.352;2023-02-12T03:38:04;466.80;;;312.45;;
45342;SDS011;31077;50.872;4.352;2023-02-12T03:40:39;526.08;;;352.15;;
45342;SDS011;31077;50.872;4.352;2023-02-12T03:43:22;334.20;;;220.13;;
45342;SDS011;31077;50.872;4.352;2023-02-12T03:45:57;201.20;;;117.82;;
45342;SDS011;31077;50.872;4.352;2023-02-12T03:51:02;383.63;;;251.23;;
45342;SDS011;31077;50.872;4.352;2023-02-12T03:53:41;268.60;;;163.18;;
45342;SDS011;31077;50.872;4.352;2023-02-12T03:56:11;422.27;;;272.23;;
45342;SDS011;31077;50.872;4.352;2023-02-12T03:58:41;663.03;;;451.15;;
45342;SDS011;31077;50.872;4.352;2023-02-12T04:01:09;614.97;;;423.27;;
45342;SDS011;31077;50.872;4.352;2023-02-12T04:03:36;530.30;;;356.88;;
45342;SDS011;31077;50.872;4.352;2023-02-12T04:06:03;603.60;;;406.60;;
45342;SDS011;31077;50.872;4.352;2023-02-12T04:08:29;369.75;;;227.05;;
45342;SDS011;31077;50.872;4.352;2023-02-12T04:18:46;579.13;;;398.00;;
45342;SDS011;31077;50.872;4.352;2023-02-12T04:24:24;663.28;;;459.55;;
45342;SDS011;31077;50.872;4.352;2023-02-12T04:27:03;599.10;;;412.05;;
45342;SDS011;31077;50.872;4.352;2023-02-12T04:29:34;464.50;;;306.98;;
45342;SDS011;31077;50.872;4.352;2023-02-12T04:32:23;546.20;;;369.17;;
45342;SDS011;31077;50.872;4.352;2023-02-12T04:37:32;365.60;;;234.32;;
45342;SDS011;31077;50.872;4.352;2023-02-12T04:40:04;569.95;;;392.85;;
45342;SDS011;31077;50.872;4.352;2023-02-12T04:42:47;627.55;;;422.45;;
45342;SDS011;31077;50.872;4.352;2023-02-12T04:45:25;410.92;;;265.83;;
45342;SDS011;31077;50.872;4.352;2023-02-12T04:47:53;423.90;;;288.90;;
45342;SDS011;31077;50.872;4.352;2023-02-12T04:50:19;459.65;;;323.20;;
45342;SDS011;31077;50.872;4.352;2023-02-12T04:52:45;329.63;;;203.95;;
45342;SDS011;31077;50.872;4.352;2023-02-12T04:55:11;694.70;;;481.00;;
45342;SDS011;31077;50.872;4.352;2023-02-12T04:57:37;549.53;;;372.67;;
45342;SDS011;31077;50.872;4.352;2023-02-12T05:00:04;595.95;;;402.77;;
45342;SDS011;31077;50.872;4.352;2023-02-12T05:02:32;436.02;;;287.30;;
45342;SDS011;31077;50.872;4.352;2023-02-12T05:04:58;599.17;;;413.80;;
45342;SDS011;31077;50.872;4.352;2023-02-12T05:07:24;680.45;;;465.10;;
45342;SDS011;31077;50.872;4.352;2023-02-12T05:09:50;551.60;;;370.33;;
45342;SDS011;31077;50.872;4.352;2023-02-12T05:12:15;668.15;;;451.30;;
45342;SDS011;31077;50.872;4.352;2023-02-12T05:14:41;618.90;;;411.77;;
45342;SDS011;31077;50.872;4.352;2023-02-12T05:17:07;691.00;;;472.75;;
45342;SDS011;31077;50.872;4.352;2023-02-12T05:19:33;414.70;;;273.15;;
45342;SDS011;31077;50.872;4.352;2023-02-12T05:21:59;584.85;;;407.02;;
45342;SDS011;31077;50.872;4.352;2023-02-12T05:24:25;401.20;;;265.48;;
45342;SDS011;31077;50.872;4.352;2023-02-12T05:26:51;391.98;;;255.70;;
45342;SDS011;31077;50.872;4.352;2023-02-12T05:29:17;540.67;;;367.42;;
45342;SDS011;31077;50.872;4.352;2023-02-12T05:31:43;338.45;;;205.88;;
45342;SDS011;31077;50.872;4.352;2023-02-12T05:34:10;478.05;;;317.00;;
45342;SDS011;31077;50.872;4.352;2023-02-12T05:36:37;476.00;;;319.10;;
45342;SDS011;31077;50.872;4.352;2023-02-12T05:39:03;475.52;;;318.02;;
45342;SDS011;31077;50.872;4.352;2023-02-12T05:41:29;458.92;;;309.08;;
45342;SDS011;31077;50.872;4.352;2023-02-12T05:43:59;433.73;;;282.98;;
45342;SDS011;31077;50.872;4.352;2023-02-12T05:46:25;268.27;;;171.10;;
45342;SDS011;31077;50.872;4.352;2023-02-12T05:48:50;328.48;;;211.45;;
45342;SDS011;31077;50.872;4.352;2023-02-12T05:51:21;467.48;;;313.85;;
45342;SDS011;31077;50.872;4.352;2023-02-12T05:53:49;551.10;;;378.38;;
45342;SDS011;31077;50.872;4.352;2023-02-12T05:56:20;535.30;;;364.17;;
45342;SDS011;31077;50.872;4.352;2023-02-12T05:58:52;474.52;;;318.67;;
45342;SDS011;31077;50.872;4.352;2023-02-12T06:01:30;447.58;;;297.50;;
45342;SDS011;31077;50.872;4.352;2023-02-12T06:03:59;435.17;;;288.42;;
45342;SDS011;31077;50.872;4.352;2023-02-12T06:06:26;489.58;;;330.75;;
45342;SDS011;31077;50.872;4.352;2023-02-12T06:08:53;506.10;;;351.98;;
45342;SDS011;31077;50.872;4.352;2023-02-12T06:11:20;362.15;;;231.68;;
45342;SDS011;31077;50.872;4.352;2023-02-12T06:13:46;416.75;;;279.90;;
45342;SDS011;31077;50.872;4.352;2023-02-12T06:16:16;372.42;;;243.88;;
45342;SDS011;31077;50.872;4.352;2023-02-12T06:18:43;474.80;;;322.90;;
45342;SDS011;31077;50.872;4.352;2023-02-12T06:21:09;226.77;;;142.23;;
45342;SDS011;31077;50.872;4.352;2023-02-12T06:23:35;381.52;;;245.20;;
45342;SDS011;31077;50.872;4.352;2023-02-12T06:26:01;363.30;;;232.23;;
45342;SDS011;31077;50.872;4.352;2023-02-12T06:28:27;480.55;;;323.35;;
45342;SDS011;31077;50.872;4.352;2023-02-12T06:30:53;398.55;;;258.35;;
45342;SDS011;31077;50.872;4.352;2023-02-12T06:33:18;324.83;;;203.70;;
45342;SDS011;31077;50.872;4.352;2023-02-12T06:35:44;220.57;;;135.55;;
45342;SDS011;31077;50.872;4.352;2023-02-12T06:38:10;252.80;;;165.23;;
45342;SDS011;31077;50.872;4.352;2023-02-12T06:40:36;270.38;;;165.73;;
45342;SDS011;31077;50.872;4.352;2023-02-12T06:43:02;383.85;;;258.25;;
45342;SDS011;31077;50.872;4.352;2023-02-12T06:45:28;389.15;;;246.52;;
45342;SDS011;31077;50.872;4.352;2023-02-12T06:47:53;215.23;;;135.95;;
45342;SDS011;31077;50.872;4.352;2023-02-12T06:50:19;317.88;;;201.77;;
45342;SDS011;31077;50.872;4.352;2023-02-12T06:52:45;323.08;;;208.88;;
45342;SDS011;31077;50.872;4.352;2023-02-12T06:55:11;401.02;;;262.05;;
45342;SDS011;31077;50.872;4.352;2023-02-12T06:57:36;225.27;;;143.75;;
45342;SDS011;31077;50.872;4.352;2023-02-12T07:00:02;365.17;;;232.70;;
45342;SDS011;31077;50.872;4.352;2023-02-12T07:02:29;403.58;;;271.20;;
45342;SDS011;31077;50.872;4.352;2023-02-12T07:04:54;381.15;;;243.95;;
45342;SDS011;31077;50.872;4.352;2023-02-12T07:07:20;356.35;;;233.82;;
45342;SDS011;31077;50.872;4.352;2023-02-12T07:09:46;206.90;;;137.88;;
45342;SDS011;31077;50.872;4.352;2023-02-12T07:12:12;217.95;;;137.95;;
45342;SDS011;31077;50.872;4.352;2023-02-12T07:14:38;320.20;;;206.30;;
45342;SDS011;31077;50.872;4.352;2023-02-12T07:17:03;277.38;;;174.00;;
45342;SDS011;31077;50.872;4.352;2023-02-12T07:19:31;113.57;;;72.20;;
45342;SDS011;31077;50.872;4.352;2023-02-12T07:21:57;102.15;;;68.15;;
45342;SDS011;31077;50.872;4.352;2023-02-12T07:24:23;110.93;;;70.10;;
45342;SDS011;31077;50.872;4.352;2023-02-12T07:26:49;268.20;;;160.63;;
45342;SDS011;31077;50.872;4.352;2023-02-12T07:29:15;195.90;;;115.38;;
45342;SDS011;31077;50.872;4.352;2023-02-12T07:31:41;138.60;;;82.75;;
45342;SDS011;31077;50.872;4.352;2023-02-12T07:34:08;211.70;;;129.93;;
45342;SDS011;31077;50.872;4.352;2023-02-12T07:36:34;144.05;;;87.88;;
45342;SDS011;31077;50.872;4.352;2023-02-12T07:39:00;143.43;;;90.10;;
45342;SDS011;31077;50.872;4.352;2023-02-12T07:41:29;179.50;;;109.40;;
45342;SDS011;31077;50.872;4.352;2023-02-12T07:43:59;203.35;;;124.00;;
45342;SDS011;31077;50.872;4.352;2023-02-12T07:46:32;212.63;;;129.20;;
45342;SDS011;31077;50.872;4.352;2023-02-12T07:49:01;200.82;;;128.32;;
45342;SDS011;31077;50.872;4.352;2023-02-12T07:51:29;227.98;;;139.95;;
45342;SDS011;31077;50.872;4.352;2023-02-12T07:53:57;223.73;;;141.52;;
45342;SDS011;31077;50.872;4.352;2023-02-12T07:56:25;290.65;;;184.90;;
45342;SDS011;31077;50.872;4.352;2023-02-12T07:58:55;361.20;;;228.52;;
45342;SDS011;31077;50.872;4.352;2023-02-12T08:01:28;315.35;;;200.88;;
45342;SDS011;31077;50.872;4.352;2023-02-12T08:04:00;298.50;;;184.40;;
45342;SDS011;31077;50.872;4.352;2023-02-12T08:06:29;281.35;;;169.57;;
45342;SDS011;31077;50.872;4.352;2023-02-12T08:08:57;388.83;;;248.85;;
45342;SDS011;31077;50.872;4.352;2023-02-12T08:11:24;376.15;;;238.40;;
45342;SDS011;31077;50.872;4.352;2023-02-12T08:13:51;355.98;;;224.93;;
45342;SDS011;31077;50.872;4.352;2023-02-12T08:16:18;259.50;;;161.75;;
45342;SDS011;31077;50.872;4.352;2023-02-12T08:18:48;169.73;;;105.43;;
45342;SDS011;31077;50.872;4.352;2023-02-12T08:21:15;213.85;;;131.38;;
45342;SDS011;31077;50.872;4.352;2023-02-12T08:23:43;86.60;;;54.53;;
45342;SDS011;31077;50.872;4.352;2023-02-12T08:26:11;294.83;;;185.50;;
45342;SDS011;31077;50.872;4.352;2023-02-12T08:28:39;165.98;;;102.30;;
45342;SDS011;31077;50.872;4.352;2023-02-12T08:31:08;259.77;;;162.52;;
45342;SDS011;31077;50.872;4.352;2023-02-12T08:33:36;275.88;;;169.07;;
45342;SDS011;31077;50.872;4.352;2023-02-12T08:36:06;248.43;;;148.63;;
45342;SDS011;31077;50.872;4.352;2023-02-12T08:38:34;219.10;;;134.43;;
45342;SDS011;31077;50.872;4.352;2023-02-12T08:41:01;229.75;;;140.73;;
45342;SDS011;31077;50.872;4.352;2023-02-12T08:43:32;326.50;;;209.00;;
45342;SDS011;31077;50.872;4.352;2023-02-12T08:46:05;320.83;;;199.63;;
45342;SDS011;31077;50.872;4.352;2023-02-12T08:48:33;428.50;;;278.42;;
45342;SDS011;31077;50.872;4.352;2023-02-12T08:51:03;414.23;;;269.40;;
45342;SDS011;31077;50.872;4.352;2023-02-12T08:53:30;378.48;;;241.63;;
45342;SDS011;31077;50.872;4.352;2023-02-12T08:55:56;204.98;;;121.25;;
45342;SDS011;31077;50.872;4.352;2023-02-12T08:58:22;359.20;;;228.55;;
45342;SDS011;31077;50.872;4.352;2023-02-12T09:00:47;556.15;;;385.08;;
45342;SDS011;31077;50.872;4.352;2023-02-12T09:03:13;510.17;;;346.77;;
45342;SDS011;31077;50.872;4.352;2023-02-12T09:05:39;481.15;;;323.95;;
45342;SDS011;31077;50.872;4.352;2023-02-12T09:08:06;515.22;;;337.88;;
45342;SDS011;31077;50.872;4.352;2023-02-12T09:10:32;448.70;;;305.88;;
45342;SDS011;31077;50.872;4.352;2023-02-12T09:12:59;355.90;;;225.02;;
45342;SDS011;31077;50.872;4.352;2023-02-12T09:15:24;245.50;;;152.13;;
45342;SDS011;31077;50.872;4.352;2023-02-12T09:17:50;451.48;;;289.70;;
45342;SDS011;31077;50.872;4.352;2023-02-12T09:20:16;367.85;;;239.98;;
45342;SDS011;31077;50.872;4.352;2023-02-12T09:22:42;407.85;;;261.08;;
45342;SDS011;31077;50.872;4.352;2023-02-12T09:25:07;380.02;;;245.02;;
45342;SDS011;31077;50.872;4.352;2023-02-12T09:27:33;153.35;;;89.70;;
45342;SDS011;31077;50.872;4.352;2023-02-12T09:29:59;398.08;;;240.63;;
45342;SDS011;31077;50.872;4.352;2023-02-12T09:32:25;276.02;;;176.02;;
45342;SDS011;31077;50.872;4.352;2023-02-12T09:34:51;297.58;;;183.77;;
45342;SDS011;31077;50.872;4.352;2023-02-12T09:37:16;311.73;;;194.55;;
45342;SDS011;31077;50.872;4.352;2023-02-12T09:39:42;283.17;;;170.50;;
45342;SDS011;31077;50.872;4.352;2023-02-12T09:44:45;255.77;;;157.68;;
45342;SDS011;31077;50.872;4.352;2023-02-12T09:47:32;430.35;;;279.42;;
45342;SDS011;31077;50.872;4.352;2023-02-12T09:52:53;293.33;;;177.35;;
45342;SDS011;31077;50.872;4.352;2023-02-12T09:55:22;281.67;;;174.40;;
45342;SDS011;31077;50.872;4.352;2023-02-12T09:57:59;393.80;;;254.43;;
45342;SDS011;31077;50.872;4.352;2023-02-12T10:00:28;172.10;;;109.88;;
45342;SDS011;31077;50.872;4.352;2023-02-12T10:02:56;135.07;;;85.05;;
45342;SDS011;31077;50.872;4.352;2023-02-12T10:05:27;254.65;;;150.02;;
45342;SDS011;31077;50.872;4.352;2023-02-12T10:26:40;779.53;;;538.38;;
45342;SDS011;31077;50.872;4.352;2023-02-12T10:29:28;569.00;;;402.02;;
45342;SDS011;31077;50.872;4.352;2023-02-12T10:32:03;578.80;;;400.70;;
45342;SDS011;31077;50.872;4.352;2023-02-12T10:34:32;681.75;;;471.30;;
45342;SDS011;31077;50.872;4.352;2023-02-12T10:37:04;543.20;;;386.77;;
45342;SDS011;31077;50.872;4.352;2023-02-12T10:39:55;628.00;;;442.63;;
45342;SDS011;31077;50.872;4.352;2023-02-12T10:42:32;540.88;;;370.10;;
45342;SDS011;31077;50.872;4.352;2023-02-12T10:45:03;386.90;;;258.40;;
45342;SDS011;31077;50.872;4.352;2023-02-12T10:47:30;609.55;;;437.58;;
45342;SDS011;31077;50.872;4.352;2023-02-12T10:50:00;465.92;;;324.73;;
45342;SDS011;31077;50.872;4.352;2023-02-12T10:52:33;409.10;;;274.33;;
45342;SDS011;31077;50.872;4.352;2023-02-12T10:55:25;446.77;;;305.50;;
45342;SDS011;31077;50.872;4.352;2023-02-12T10:57:51;410.80;;;272.17;;
45342;SDS011;31077;50.872;4.352;2023-02-12T11:00:22;435.50;;;289.92;;
45342;SDS011;31077;50.872;4.352;2023-02-12T11:03:04;348.98;;;227.93;;
45342;SDS011;31077;50.872;4.352;2023-02-12T11:05:37;301.98;;;191.80;;
45342;SDS011;31077;50.872;4.352;2023-02-12T11:08:05;321.63;;;203.85;;
45342;SDS011;31077;50.872;4.352;2023-02-12T11:10:34;328.30;;;210.32;;
45342;SDS011;31077;50.872;4.352;2023-02-12T11:13:03;225.00;;;143.38;;
45342;SDS011;31077;50.872;4.352;2023-02-12T11:15:51;217.75;;;135.77;;
45342;SDS011;31077;50.872;4.352;2023-02-12T11:18:23;273.95;;;173.20;;
45342;SDS011;31077;50.872;4.352;2023-02-12T11:20:56;185.45;;;114.53;;
45342;SDS011;31077;50.872;4.352;2023-02-12T11:26:01;197.82;;;125.38;;
45342;SDS011;31077;50.872;4.352;2023-02-12T11:29:00;188.90;;;120.50;;
45342;SDS011;31077;50.872;4.352;2023-02-12T11:31:41;260.33;;;159.98;;
45342;SDS011;31077;50.872;4.352;2023-02-12T11:34:17;184.07;;;111.28;;
45342;SDS011;31077;50.872;4.352;2023-02-12T11:36:47;203.48;;;129.48;;
45342;SDS011;31077;50.872;4.352;2023-02-12T11:39:22;185.85;;;116.20;;
45342;SDS011;31077;50.872;4.352;2023-02-12T11:41:52;182.68;;;110.03;;
45342;SDS011;31077;50.872;4.352;2023-02-12T11:44:24;184.30;;;115.18;;
45342;SDS011;31077;50.872;4.352;2023-02-12T11:47:17;169.40;;;104.30;;
45342;SDS011;31077;50.872;4.352;2023-02-12T11:49:56;159.32;;;99.82;;
45342;SDS011;31077;50.872;4.352;2023-02-12T11:52:30;150.93;;;98.28;;
45342;SDS011;31077;50.872;4.352;2023-02-12T11:54:59;148.75;;;95.68;;
45342;SDS011;31077;50.872;4.352;2023-02-12T11:57:42;135.85;;;86.72;;
45342;SDS011;31077;50.872;4.352;2023-02-12T12:00:28;142.75;;;84.45;;
45342;SDS011;31077;50.872;4.352;2023-02-12T12:03:01;130.00;;;80.50;;
45342;SDS011;31077;50.872;4.352;2023-02-12T12:05:48;120.15;;;77.72;;
45342;SDS011;31077;50.872;4.352;2023-02-12T12:08:20;123.70;;;74.68;;
45342;SDS011;31077;50.872;4.352;2023-02-12T12:14:00;98.57;;;64.65;;
45342;SDS011;31077;50.872;4.352;2023-02-12T12:16:51;111.13;;;67.28;;
45342;SDS011;31077;50.872;4.352;2023-02-12T12:20:05;99.35;;;64.70;;
45342;SDS011;31077;50.872;4.352;2023-02-12T12:22:41;97.70;;;63.22;;
45342;SDS011;31077;50.872;4.352;2023-02-12T12:25:17;95.75;;;59.95;;
45342;SDS011;31077;50.872;4.352;2023-02-12T12:44:27;68.70;;;45.30;;
45342;SDS011;31077;50.872;4.352;2023-02-12T12:53:00;62.80;;;40.55;;
45342;SDS011;31077;50.872;4.352;2023-02-12T13:14:38;51.53;;;30.70;;
45342;SDS011;31077;50.872;4.352;2023-02-12T13:22:50;42.10;;;26.42;;
45342;SDS011;31077;50.872;4.352;2023-02-12T13:27:58;37.33;;;24.95;;
45342;SDS011;31077;50.872;4.352;2023-02-12T13:30:35;37.83;;;24.17;;
45342;SDS011;31077;50.872;4.352;2023-02-12T13:33:09;38.55;;;24.10;;
45342;SDS011;31077;50.872;4.352;2023-02-12T13:35:45;35.95;;;23.38;;
45342;SDS011;31077;50.872;4.352;2023-02-12T13:38:20;35.80;;;21.60;;
45342;SDS011;31077;50.872;4.352;2023-02-12T13:40:51;33.55;;;22.40;;
45342;SDS011;31077;50.872;4.352;2023-02-12T13:43:41;31.80;;;20.42;;
45342;SDS011;31077;50.872;4.352;2023-02-12T13:46:11;34.23;;;20.60;;
45342;SDS011;31077;50.872;4.352;2023-02-12T13:48:54;32.85;;;19.85;;
45342;SDS011;31077;50.872;4.352;2023-02-12T13:57:00;24.13;;;17.50;;
45342;SDS011;31077;50.872;4.352;2023-02-12T14:02:01;23.77;;;16.08;;
45342;SDS011;31077;50.872;4.352;2023-02-12T14:04:56;27.45;;;17.25;;
45342;SDS011;31077;50.872;4.352;2023-02-12T14:07:38;25.45;;;16.27;;
45342;SDS011;31077;50.872;4.352;2023-02-12T14:10:18;21.92;;;14.40;;
45342;SDS011;31077;50.872;4.352;2023-02-12T14:15:25;20.35;;;13.05;;
45342;SDS011;31077;50.872;4.352;2023-02-12T14:18:02;26.55;;;14.55;;
45342;SDS011;31077;50.872;4.352;2023-02-12T14:20:45;28.08;;;13.70;;
45342;SDS011;31077;50.872;4.352;2023-02-12T14:23:22;17.92;;;12.75;;
45342;SDS011;31077;50.872;4.352;2023-02-12T14:49:56;14.60;;;9.75;;
45342;SDS011;31077;50.872;4.352;2023-02-12T14:52:39;14.02;;;10.63;;
45342;SDS011;31077;50.872;4.352;2023-02-12T14:55:23;13.57;;;9.90;;
45342;SDS011;31077;50.872;4.352;2023-02-12T14:57:58;12.20;;;9.23;;
45342;SDS011;31077;50.872;4.352;2023-02-12T15:00:30;12.10;;;9.40;;
45342;SDS011;31077;50.872;4.352;2023-02-12T15:03:13;10.82;;;8.80;;
45342;SDS011;31077;50.872;4.352;2023-02-12T15:05:53;11.43;;;8.80;;
45342;SDS011;31077;50.872;4.352;2023-02-12T15:08:48;11.65;;;8.70;;
45342;SDS011;31077;50.872;4.352;2023-02-12T15:14:18;11.45;;;8.73;;
45342;SDS011;31077;50.872;4.352;2023-02-12T15:16:54;11.02;;;8.90;;
45342;SDS011;31077;50.872;4.352;2023-02-12T15:21:58;11.23;;;8.07;;
45342;SDS011;31077;50.872;4.352;2023-02-12T15:24:24;10.18;;;7.72;;
45342;SDS011;31077;50.872;4.352;2023-02-12T15:26:55;9.57;;;7.68;;
45342;SDS011;31077;50.872;4.352;2023-02-12T15:29:41;9.75;;;6.85;;
45342;SDS011;31077;50.872;4.352;2023-02-12T15:32:44;9.70;;;7.03;;
45342;SDS011;31077;50.872;4.352;2023-02-12T15:35:03;9.90;;;7.10;;
45342;SDS011;31077;50.872;4.352;2023-02-12T15:37:47;8.82;;;6.85;;
45342;SDS011;31077;50.872;4.352;2023-02-12T15:40:13;9.70;;;7.80;;
45342;SDS011;31077;50.872;4.352;2023-02-12T15:42:49;8.70;;;6.95;;
45342;SDS011;31077;50.872;4.352;2023-02-12T15:45:20;8.25;;;6.88;;
45342;SDS011;31077;50.872;4.352;2023-02-12T15:48:35;9.77;;;6.85;;
45342;SDS011;31077;50.872;4.352;2023-02-12T15:50:55;8.18;;;6.60;;
45342;SDS011;31077;50.872;4.352;2023-02-12T15:53:29;8.23;;;7.18;;
45342;SDS011;31077;50.872;4.352;2023-02-12T15:55:56;9.65;;;6.88;;
45342;SDS011;31077;50.872;4.352;2023-02-12T15:58:28;9.02;;;7.13;;
45342;SDS011;31077;50.872;4.352;2023-02-12T16:01:03;8.85;;;6.90;;
45342;SDS011;31077;50.872;4.352;2023-02-12T16:03:31;8.93;;;6.68;;
45342;SDS011;31077;50.872;4.352;2023-02-12T16:06:18;7.45;;;6.35;;
45342;SDS011;31077;50.872;4.352;2023-02-12T16:11:32;8.90;;;6.63;;
45342;SDS011;31077;50.872;4.352;2023-02-12T16:14:03;8.70;;;6.38;;
45342;SDS011;31077;50.872;4.352;2023-02-12T16:16:50;8.52;;;6.68;;
45342;SDS011;31077;50.872;4.352;2023-02-12T16:19:29;7.90;;;6.07;;
45342;SDS011;31077;50.872;4.352;2023-02-12T16:27:03;9.27;;;7.18;;
45342;SDS011;31077;50.872;4.352;2023-02-12T16:29:43;8.95;;;7.03;;
45342;SDS011;31077;50.872;4.352;2023-02-12T16:47:54;14.63;;;8.77;;
45342;SDS011;31077;50.872;4.352;2023-02-12T16:50:36;12.38;;;9.02;;
45342;SDS011;31077;50.872;4.352;2023-02-12T16:53:23;12.40;;;8.57;;
45342;SDS011;31077;50.872;4.352;2023-02-12T16:56:00;11.82;;;8.85;;
45342;SDS011;31077;50.872;4.352;2023-02-12T16:58:27;13.98;;;9.48;;
45342;SDS011;31077;50.872;4.352;2023-02-12T17:00:54;11.02;;;8.80;;
45342;SDS011;31077;50.872;4.352;2023-02-12T17:03:21;12.40;;;9.52;;
45342;SDS011;31077;50.872;4.352;2023-02-12T17:05:48;10.60;;;8.27;;
45342;SDS011;31077;50.872;4.352;2023-02-12T17:08:16;9.73;;;8.00;;
45342;SDS011;31077;50.872;4.352;2023-02-12T17:10:45;10.60;;;7.93;;
45342;SDS011;31077;50.872;4.352;2023-02-12T17:13:12;11.65;;;8.95;;
45342;SDS011;31077;50.872;4.352;2023-02-12T17:15:44;10.65;;;8.68;;
45342;SDS011;31077;50.872;4.352;2023-02-12T17:18:10;11.05;;;8.20;;
45342;SDS011;31077;50.872;4.352;2023-02-12T17:20:37;11.25;;;8.93;;
45342;SDS011;31077;50.872;4.352;2023-02-12T17:23:02;9.77;;;8.35;;
45342;SDS011;31077;50.872;4.352;2023-02-12T17:25:29;13.95;;;8.23;;
45342;SDS011;31077;50.872;4.352;2023-02-12T17:27:56;11.93;;;9.38;;
45342;SDS011;31077;50.872;4.352;2023-02-12T17:30:22;12.38;;;9.05;;
45342;SDS011;31077;50.872;4.352;2023-02-12T17:32:53;10.57;;;8.55;;
45342;SDS011;31077;50.872;4.352;2023-02-12T17:35:19;12.57;;;8.90;;
45342;SDS011;31077;50.872;4.352;2023-02-12T17:37:44;11.50;;;8.95;;
45342;SDS011;31077;50.872;4.352;2023-02-12T17:40:12;10.70;;;8.18;;
45342;SDS011;31077;50.872;4.352;2023-02-12T17:42:38;11.38;;;8.23;;
45342;SDS011;31077;50.872;4.352;2023-02-12T17:45:04;11.32;;;8.63;;
45342;SDS011;31077;50.872;4.352;2023-02-12T17:47:30;11.02;;;8.80;;
45342;SDS011;31077;50.872;4.352;2023-02-12T17:49:58;10.52;;;8.82;;
45342;SDS011;31077;50.872;4.352;2023-02-12T17:52:26;12.80;;;8.55;;
45342;SDS011;31077;50.872;4.352;2023-02-12T17:54:52;10.50;;;9.30;;
45342;SDS011;31077;50.872;4.352;2023-02-12T17:57:18;12.20;;;8.88;;
45342;SDS011;31077;50.872;4.352;2023-02-12T17:59:43;10.48;;;8.95;;
45342;SDS011;31077;50.872;4.352;2023-02-12T18:02:10;12.52;;;9.23;;
45342;SDS011;31077;50.872;4.352;2023-02-12T18:04:36;10.05;;;8.38;;
45342;SDS011;31077;50.872;4.352;2023-02-12T18:07:02;10.57;;;8.98;;
45342;SDS011;31077;50.872;4.352;2023-02-12T18:09:29;10.60;;;8.32;;
45342;SDS011;31077;50.872;4.352;2023-02-12T18:11:55;11.13;;;8.15;;
45342;SDS011;31077;50.872;4.352;2023-02-12T18:14:21;10.40;;;8.38;;
45342;SDS011;31077;50.872;4.352;2023-02-12T18:16:47;11.63;;;9.18;;
45342;SDS011;31077;50.872;4.352;2023-02-12T18:19:13;12.00;;;8.50;;
45342;SDS011;31077;50.872;4.352;2023-02-12T18:21:39;9.88;;;8.23;;
45342;SDS011;31077;50.872;4.352;2023-02-12T18:24:04;12.38;;;9.50;;
45342;SDS011;31077;50.872;4.352;2023-02-12T18:26:31;12.18;;;8.73;;
45342;SDS011;31077;50.872;4.352;2023-02-12T18:28:57;9.75;;;8.32;;
45342;SDS011;31077;50.872;4.352;2023-02-12T18:31:24;11.07;;;8.45;;
45342;SDS011;31077;50.872;4.352;2023-02-12T18:33:50;11.18;;;8.07;;
45342;SDS011;31077;50.872;4.352;2023-02-12T18:36:17;10.52;;;8.27;;
45342;SDS011;31077;50.872;4.352;2023-02-12T18:38:45;10.60;;;9.15;;
45342;SDS011;31077;50.872;4.352;2023-02-12T18:41:13;11.85;;;8.70;;
45342;SDS011;31077;50.872;4.352;2023-02-12T18:43:43;13.48;;;9.93;;
45342;SDS011;31077;50.872;4.352;2023-02-12T18:46:10;10.77;;;8.68;;
45342;SDS011;31077;50.872;4.352;2023-02-12T18:48:37;10.10;;;8.35;;
45342;SDS011;31077;50.872;4.352;2023-02-12T18:51:04;10.98;;;9.50;;
45342;SDS011;31077;50.872;4.352;2023-02-12T18:53:31;10.35;;;9.23;;
45342;SDS011;31077;50.872;4.352;2023-02-12T18:55:57;13.70;;;9.18;;
45342;SDS011;31077;50.872;4.352;2023-02-12T18:58:27;10.48;;;9.18;;
45342;SDS011;31077;50.872;4.352;2023-02-12T19:00:53;13.32;;;9.77;;
45342;SDS011;31077;50.872;4.352;2023-02-12T19:03:19;10.68;;;9.00;;
45342;SDS011;31077;50.872;4.352;2023-02-12T19:05:45;9.90;;;8.20;;
45342;SDS011;31077;50.872;4.352;2023-02-12T19:08:12;11.02;;;8.82;;
45342;SDS011;31077;50.872;4.352;2023-02-12T19:10:38;10.68;;;8.88;;
45342;SDS011;31077;50.872;4.352;2023-02-12T19:13:05;11.02;;;9.38;;
45342;SDS011;31077;50.872;4.352;2023-02-12T19:15:31;11.88;;;9.90;;
45342;SDS011;31077;50.872;4.352;2023-02-12T19:17:56;11.32;;;9.77;;
45342;SDS011;31077;50.872;4.352;2023-02-12T19:20:22;11.82;;;9.77;;
45342;SDS011;31077;50.872;4.352;2023-02-12T19:22:48;10.38;;;8.98;;
45342;SDS011;31077;50.872;4.352;2023-02-12T19:25:14;10.82;;;9.25;;
45342;SDS011;31077;50.872;4.352;2023-02-12T19:27:40;12.88;;;9.85;;
45342;SDS011;31077;50.872;4.352;2023-02-12T19:30:05;12.25;;;10.07;;
45342;SDS011;31077;50.872;4.352;2023-02-12T19:32:32;12.10;;;9.98;;
45342;SDS011;31077;50.872;4.352;2023-02-12T19:34:58;11.90;;;9.43;;